Woodville, Virginia
Current Conditions -  °F | °C
As of 3:15 AM on Monday 24 Nov 2014 (Local Time) from KLUA Reporting Station
Overcast Overcast  
Wind Chill: 59°   Ceiling: 3500
Heat Index: 59°   Visibility: 10mi
Dew Point: 59°   Wind: 3mph
Humidity: 100%   Direction: 190°S
Pressure: 29.62"   Gusts: NA
Location:  38.61°N, 78.18°W
Report Text: KLUA 240815Z AUTO 19003KT 10SM SCT026 BKN035 OVC041 15/15 A2962 RMK AO2
Loading
Personal Weather Stations






























Interactive Weather Map New forecast layout! Learn more

10-Day Weather Forecast

Advertisements
Track Severe Weather on mobile